Barbarossa — ZDFA4 — position and weather

sailwx.info

Track history (hours):
 
Tides and Currents Weather Stations Pressure Air Temp Water Temp Dewpoint Dewpoint Depression Visibility Wind Speed Wind Dir Waves Ship Positions

Barbarossa

Last reported at 2016-May-24 02:15 UTC. Time now 2016-May-24 11:54 UTC.
Position N 47°31' W 005°12'.

Length 83 m; draft 5.6 m.

Type: Cargo ship. MMSI: 236029000.

Date/timePositionNaut miles runAvg speedWind from/ knotsBaromVisibWave heightAir tempDewpointWater temp
2016-May-24 02:15N 47°31' W 005°12'7 9.5
2016-May-24 01:33N 47°38' W 005°16'151 7.9
2016-May-23 06:33N 49°49' W 003°24'9 8.9
2016-May-23 05:33N 49°54' W 003°12'10 9.9
2016-May-23 04:33N 49°60' W 002°60'1211.2
2016-May-23 03:31N 50°03' W 002°42'6810.9
2016-May-22 21:14N 50°22' W 000°60'5 7.0
2016-May-22 20:33N 50°23' W 000°52'8 7.6
2016-May-22 19:33N 50°25' W 000°41'9 9.1
2016-May-22 18:33N 50°28' W 000°27'1110.6
2016-May-22 17:33N 50°30' W 000°11'1211.5
2016-May-22 16:33N 50°34' E 000°06'1311.9
2016-May-22 15:29N 50°37' E 000°25'42 9.8
2016-May-22 11:10N 51°01' E 001°21'6 9.3
2016-May-22 10:33N 51°05' E 001°28'1111.1
2016-May-22 09:33N 51°12' E 001°42'1312.6
2016-May-22 08:33N 51°23' E 001°52'1312.6
2016-May-22 07:33N 51°33' E 002°03'1211.8
2016-May-22 06:31N 51°42' E 002°16'159 9.9
2016-May-21 14:31N 53°51' E 004°49'1110.5
2016-May-21 13:31N 54°01' E 004°55'1010.3
2016-May-21 12:33N 54°10' E 005°03'1110.1
2016-May-21 11:29N 54°19' E 005°13'910.0
2016-May-21 10:33N 54°27' E 005°21'7010.0
2016-May-21 03:31N 55°27' E 006°25'199 9.5
2016-May-20 06:33N 57°49' E 010°39'7 7.2
2016-May-20 05:33N 57°42' E 010°45'5 1.3
2016-May-20 01:28N 57°40' E 010°35'3 3.3
2016-May-20 00:33N 57°39' E 010°40'1210.6
2016-May-19 23:24N 57°35' E 011°02'910.6
2016-May-19 22:33N 57°30' E 011°16'9 9.4
2016-May-19 21:33N 57°24' E 011°29'1010.1
2016-May-19 20:33N 57°14' E 011°35'1010.6
2016-May-19 19:33N 57°04' E 011°42'1110.5
2016-May-19 18:33N 56°54' E 011°48'1010.1
2016-May-19 17:33N 56°45' E 011°54'1010.3
2016-May-19 16:33N 56°35' E 011°59'20 9.9
2016-May-19 14:32N 56°16' E 012°11'1111.1
2016-May-19 13:33N 56°10' E 012°27'1111.4
2016-May-19 12:33N 56°01' E 012°41'1110.8
2016-May-19 11:33N 55°51' E 012°44'1110.8
2016-May-19 10:33N 55°40' E 012°42'1110.8
2016-May-19 09:33N 55°29' E 012°43'1110.5
2016-May-19 08:33N 55°19' E 012°42'1010.2
2016-May-19 07:33N 55°16' E 012°59'1110.6
2016-May-19 06:33N 55°15' E 013°18'2210.8
2016-May-19 04:33N 55°14' E 013°56'1111.2
2016-May-19 03:33N 55°14' E 014°15'1110.9
2016-May-19 02:33N 55°22' E 014°28'1110.8
2016-May-19 01:34N 55°29' E 014°42'1110.7
2016-May-19 00:33N 55°35' E 014°58'1110.8
2016-May-18 23:33N 55°40' E 015°15'35110.3
2016-May-17 13:32N 59°38' E 023°16'1010.5
2016-May-17 12:33N 59°41' E 023°35'1110.6
2016-May-17 11:30N 59°44' E 023°57'7310.4
2016-May-17 04:26N 59°60' E 026°20'910.3
2016-May-17 03:33N 60°02' E 026°37'1110.4
2016-May-17 02:29N 59°60' E 026°59'910.1
2016-May-17 01:33N 60°04' E 027°16'1010.2
2016-May-17 00:33N 60°09' E 027°34'9 9.5
2016-May-16 23:33N 60°11' E 027°52'1010.4
2016-May-16 22:33N 60°09' E 028°12'1010.5
2016-May-16 21:34N 60°03' E 028°30'1010.3
2016-May-16 20:32N 60°03' E 028°51'2410.3
2016-May-16 18:15N 60°00' E 029°38'710.5
2016-May-16 17:34N 59°57' E 029°52'9 9.3
2016-May-16 16:33N 59°54' E 030°09'2 2.4
2016-May-16 15:33N 59°54' E 030°14'0 0.0
2016-May-16 14:32N 59°54' E 030°14'0 0.0
2016-May-16 13:32N 59°54' E 030°14'0 0.0
2016-May-16 12:31N 59°54' E 030°14'0 0.0
2016-May-16 11:31N 59°54' E 030°14'0 0.0
2016-May-16 10:28N 59°54' E 030°14'0 0.0
2016-May-16 09:33N 59°54' E 030°14'0 0.0
2016-May-16 08:33N 59°54' E 030°14'0 0.0
2016-May-16 07:32N 59°54' E 030°14'0 0.0
2016-May-16 06:32N 59°54' E 030°14'0 0.0
2016-May-16 05:31N 59°54' E 030°14'0 0.0
2016-May-16 04:31N 59°54' E 030°14'0 0.0
2016-May-16 03:31N 59°54' E 030°14'0 0.0
2016-May-16 02:33N 59°54' E 030°14'0 0.0
2016-May-16 01:30N 59°54' E 030°14'0 0.0
2016-May-16 00:32N 59°54' E 030°14'0 0.0
2016-May-15 23:32N 59°54' E 030°14'0 0.0
2016-May-15 22:31N 59°54' E 030°14'0 0.0
2016-May-15 21:31N 59°54' E 030°14'0 0.0
2016-May-15 20:34N 59°54' E 030°14'0 0.0
2016-May-15 19:33N 59°54' E 030°14'0 0.0
2016-May-15 18:33N 59°54' E 030°14'0 0.0
2016-May-15 17:32N 59°54' E 030°14'0 0.0
2016-May-15 16:32N 59°54' E 030°14'0 0.0
2016-May-15 15:31N 59°54' E 030°14'0 0.0
2016-May-15 14:31N 59°54' E 030°14'0 0.0
2016-May-15 13:34N 59°54' E 030°14'0 0.0
2016-May-15 12:33N 59°54' E 030°14'0 0.0
2016-May-15 11:33N 59°54' E 030°14'0 0.0
2016-May-15 10:32N 59°54' E 030°14'0 0.0
2016-May-15 09:32N 59°54' E 030°14'0 0.0
2016-May-15 08:31N 59°54' E 030°14'0 0.0
2016-May-15 07:31N 59°54' E 030°14'0 0.0
2016-May-15 06:33N 59°54' E 030°14'0 0.4
2016-May-15 05:33N 59°55' E 030°14'6 6.3
2016-May-15 04:33N 59°55' E 030°01'1110.9
2016-May-15 03:32N 59°60' E 029°41'24 2.0
2016-May-14 15:14N 60°02' E 028°53'710.8
2016-May-14 14:33N 60°02' E 028°38'1010.2
2016-May-14 13:33N 60°06' E 028°19'1010.4
2016-May-14 12:33N 60°09' E 027°59'8 8.3
2016-May-14 11:33N 60°09' E 027°43'8 8.2
2016-May-14 10:32N 60°05' E 027°28'8 8.5
2016-May-14 09:33N 60°01' E 027°14'8 8.3
2016-May-14 08:33N 59°58' E 026°58'8 8.5
2016-May-14 07:33N 59°59' E 026°42'8 8.2
2016-May-14 06:32N 59°58' E 026°25'18 8.7
2016-May-14 04:26N 59°52' E 025°50'  
Track history (hours):
 
Tides and Currents Weather Stations Pressure Air Temp Water Temp Dewpoint Dewpoint Depression Visibility Wind Speed Wind Dir Waves Ship Positions

Barbarossa

Last reported at 2016-May-24 02:15 UTC. Time now 2016-May-24 11:54 UTC.
Position N 47°31' W 005°12'.

Length 83 m; draft 5.6 m.

Type: Cargo ship. MMSI: 236029000.

Date/timePositionNaut miles runAvg speedWind from/ knotsBaromVisibWave heightAir tempDewpointWater temp
2016-May-24 02:15N 47°31' W 005°12'7 9.5
2016-May-24 01:33N 47°38' W 005°16'151 7.9
2016-May-23 06:33N 49°49' W 003°24'9 8.9
2016-May-23 05:33N 49°54' W 003°12'10 9.9
2016-May-23 04:33N 49°60' W 002°60'1211.2
2016-May-23 03:31N 50°03' W 002°42'6810.9
2016-May-22 21:14N 50°22' W 000°60'5 7.0
2016-May-22 20:33N 50°23' W 000°52'8 7.6
2016-May-22 19:33N 50°25' W 000°41'9 9.1
2016-May-22 18:33N 50°28' W 000°27'1110.6
2016-May-22 17:33N 50°30' W 000°11'1211.5
2016-May-22 16:33N 50°34' E 000°06'1311.9
2016-May-22 15:29N 50°37' E 000°25'42 9.8
2016-May-22 11:10N 51°01' E 001°21'6 9.3
2016-May-22 10:33N 51°05' E 001°28'1111.1
2016-May-22 09:33N 51°12' E 001°42'1312.6
2016-May-22 08:33N 51°23' E 001°52'1312.6
2016-May-22 07:33N 51°33' E 002°03'1211.8
2016-May-22 06:31N 51°42' E 002°16'159 9.9
2016-May-21 14:31N 53°51' E 004°49'1110.5
2016-May-21 13:31N 54°01' E 004°55'1010.3
2016-May-21 12:33N 54°10' E 005°03'1110.1
2016-May-21 11:29N 54°19' E 005°13'910.0
2016-May-21 10:33N 54°27' E 005°21'7010.0
2016-May-21 03:31N 55°27' E 006°25'199 9.5
2016-May-20 06:33N 57°49' E 010°39'7 7.2
2016-May-20 05:33N 57°42' E 010°45'5 1.3
2016-May-20 01:28N 57°40' E 010°35'3 3.3
2016-May-20 00:33N 57°39' E 010°40'1210.6
2016-May-19 23:24N 57°35' E 011°02'910.6
2016-May-19 22:33N 57°30' E 011°16'9 9.4
2016-May-19 21:33N 57°24' E 011°29'1010.1
2016-May-19 20:33N 57°14' E 011°35'1010.6
2016-May-19 19:33N 57°04' E 011°42'1110.5
2016-May-19 18:33N 56°54' E 011°48'1010.1
2016-May-19 17:33N 56°45' E 011°54'1010.3
2016-May-19 16:33N 56°35' E 011°59'20 9.9
2016-May-19 14:32N 56°16' E 012°11'1111.1
2016-May-19 13:33N 56°10' E 012°27'1111.4
2016-May-19 12:33N 56°01' E 012°41'1110.8
2016-May-19 11:33N 55°51' E 012°44'1110.8
2016-May-19 10:33N 55°40' E 012°42'1110.8
2016-May-19 09:33N 55°29' E 012°43'1110.5
2016-May-19 08:33N 55°19' E 012°42'1010.2
2016-May-19 07:33N 55°16' E 012°59'1110.6
2016-May-19 06:33N 55°15' E 013°18'2210.8
2016-May-19 04:33N 55°14' E 013°56'1111.2
2016-May-19 03:33N 55°14' E 014°15'1110.9
2016-May-19 02:33N 55°22' E 014°28'1110.8
2016-May-19 01:34N 55°29' E 014°42'1110.7
2016-May-19 00:33N 55°35' E 014°58'1110.8
2016-May-18 23:33N 55°40' E 015°15'35110.3
2016-May-17 13:32N 59°38' E 023°16'1010.5
2016-May-17 12:33N 59°41' E 023°35'1110.6
2016-May-17 11:30N 59°44' E 023°57'7310.4
2016-May-17 04:26N 59°60' E 026°20'910.3
2016-May-17 03:33N 60°02' E 026°37'1110.4
2016-May-17 02:29N 59°60' E 026°59'910.1
2016-May-17 01:33N 60°04' E 027°16'1010.2
2016-May-17 00:33N 60°09' E 027°34'9 9.5
2016-May-16 23:33N 60°11' E 027°52'1010.4
2016-May-16 22:33N 60°09' E 028°12'1010.5
2016-May-16 21:34N 60°03' E 028°30'1010.3
2016-May-16 20:32N 60°03' E 028°51'2410.3
2016-May-16 18:15N 60°00' E 029°38'710.5
2016-May-16 17:34N 59°57' E 029°52'9 9.3
2016-May-16 16:33N 59°54' E 030°09'2 2.4
2016-May-16 15:33N 59°54' E 030°14'0 0.0
2016-May-16 14:32N 59°54' E 030°14'0 0.0
2016-May-16 13:32N 59°54' E 030°14'0 0.0
2016-May-16 12:31N 59°54' E 030°14'0 0.0
2016-May-16 11:31N 59°54' E 030°14'0 0.0
2016-May-16 10:28N 59°54' E 030°14'0 0.0
2016-May-16 09:33N 59°54' E 030°14'0 0.0
2016-May-16 08:33N 59°54' E 030°14'0 0.0
2016-May-16 07:32N 59°54' E 030°14'0 0.0
2016-May-16 06:32N 59°54' E 030°14'0 0.0
2016-May-16 05:31N 59°54' E 030°14'0 0.0
2016-May-16 04:31N 59°54' E 030°14'0 0.0
2016-May-16 03:31N 59°54' E 030°14'0 0.0
2016-May-16 02:33N 59°54' E 030°14'0 0.0
2016-May-16 01:30N 59°54' E 030°14'0 0.0
2016-May-16 00:32N 59°54' E 030°14'0 0.0
2016-May-15 23:32N 59°54' E 030°14'0 0.0
2016-May-15 22:31N 59°54' E 030°14'0 0.0
2016-May-15 21:31N 59°54' E 030°14'0 0.0
2016-May-15 20:34N 59°54' E 030°14'0 0.0
2016-May-15 19:33N 59°54' E 030°14'0 0.0
2016-May-15 18:33N 59°54' E 030°14'0 0.0
2016-May-15 17:32N 59°54' E 030°14'0 0.0
2016-May-15 16:32N 59°54' E 030°14'0 0.0
2016-May-15 15:31N 59°54' E 030°14'0 0.0
2016-May-15 14:31N 59°54' E 030°14'0 0.0
2016-May-15 13:34N 59°54' E 030°14'0 0.0
2016-May-15 12:33N 59°54' E 030°14'0 0.0
2016-May-15 11:33N 59°54' E 030°14'0 0.0
2016-May-15 10:32N 59°54' E 030°14'0 0.0
2016-May-15 09:32N 59°54' E 030°14'0 0.0
2016-May-15 08:31N 59°54' E 030°14'0 0.0
2016-May-15 07:31N 59°54' E 030°14'0 0.0
2016-May-15 06:33N 59°54' E 030°14'0 0.4
2016-May-15 05:33N 59°55' E 030°14'6 6.3
2016-May-15 04:33N 59°55' E 030°01'1110.9
2016-May-15 03:32N 59°60' E 029°41'24 2.0
2016-May-14 15:14N 60°02' E 028°53'710.8
2016-May-14 14:33N 60°02' E 028°38'1010.2
2016-May-14 13:33N 60°06' E 028°19'1010.4
2016-May-14 12:33N 60°09' E 027°59'8 8.3
2016-May-14 11:33N 60°09' E 027°43'8 8.2
2016-May-14 10:32N 60°05' E 027°28'8 8.5
2016-May-14 09:33N 60°01' E 027°14'8 8.3
2016-May-14 08:33N 59°58' E 026°58'8 8.5
2016-May-14 07:33N 59°59' E 026°42'8 8.2
2016-May-14 06:32N 59°58' E 026°25'18 8.7
2016-May-14 04:26N 59°52' E 025°50'  

Dump ship's entire track history